Ranchitos, New Mexico
Current Conditions -  °F | °C
As of 1:55 AM on Wednesday 22 Oct 2014 (Local Time) from KAEG Reporting Station
Overcast Overcast  
Wind Chill: 51°   Ceiling: 8000
Heat Index: 51°   Visibility: 10mi
Dew Point: 47°   Wind: 3mph
Humidity: 89%   Direction: 160°SSE
Pressure: 30.14"   Gusts: NA
Location:  35.4078°N, 106.82°W
Report Text: KAEG 220755Z AUTO 16003KT 10SM BKN080 OVC110 10/09 A3014 RMK AO2 T01030085
Loading
Personal Weather Stations






























Interactive Weather Map
Tropical Storm Tracking
New forecast layout! Learn more

10-Day Weather Forecast

Advertisements
Track Severe Weather on mobile